Ashaiiu, Virginia
Current Conditions -  °F | °C
As of 12:06 PM on Tuesday 27 Jan 2015 (Local Time) from KOFP Reporting Station
Overcast Overcast  
Wind Chill: 26°   Ceiling: 2300
Heat Index: 34°   Visibility: 10mi
Dew Point: 26°   Wind: 10mph
Humidity: 73%   Direction: 300°WNW
Pressure: 29.82"   Gusts: NA
Location:  37.7534°N, 77.495°W
Report Text: KOFP 271706Z AUTO 30009KT 10SM BKN023 BKN038 OVC055 01/M03 A2982 RMK AO2 T00111033
Loading
Personal Weather Stations






























Interactive Weather Map New forecast layout! Learn more

10-Day Weather Forecast

Advertisements
Track Severe Weather on mobile